Time;durP1;ratioP1;P1;durP2;ratioP2;P2;SDS_P1;SDS_P2;PMS_P1;PMS_P2;Temp;Humidity;BMP_temperature;BMP_pressure;BME280_temperature;BME280_humidity;BME280_pressure;Samples;Min_cycle;Max_cycle;Signal;HPM_P1;HPM_P2
2021/12/03 00:00:06;;;;;;;4.10;2.15;;;20.40;51.10;;;;;;4993669;28;20112;-62
2021/12/03 00:02:31;;;;;;;5.07;2.40;;;20.40;51.10;;;;;;4994735;28;20053;-62
2021/12/03 00:04:57;;;;;;;4.40;2.20;;;20.40;51.10;;;;;;4993652;28;20050;-62
2021/12/03 00:07:22;;;;;;;4.75;2.45;;;20.40;51.10;;;;;;4994709;28;20050;-62
2021/12/03 00:09:48;;;;;;;4.82;2.30;;;20.40;51.70;;;;;;4994452;28;20557;-62
2021/12/03 00:12:13;;;;;;;4.35;2.25;;;20.40;51.00;;;;;;4993975;28;20042;-62
2021/12/03 00:14:39;;;;;;;5.88;2.60;;;20.40;51.00;;;;;;4994564;28;20069;-62
2021/12/03 00:17:04;;;;;;;4.35;2.33;;;20.30;50.80;;;;;;4993513;28;20046;-62
2021/12/03 00:19:30;;;;;;;7.05;2.90;;;20.30;50.80;;;;;;4993849;28;20046;-62
2021/12/03 00:21:55;;;;;;;5.05;2.30;;;20.20;50.80;;;;;;4993455;28;20133;-62
2021/12/03 00:24:21;;;;;;;4.95;2.40;;;20.30;50.80;;;;;;4994603;28;20414;-62
2021/12/03 00:26:46;;;;;;;4.18;2.30;;;20.20;50.70;;;;;;4994450;28;20513;-62
2021/12/03 00:29:12;;;;;;;3.50;2.25;;;20.30;50.80;;;;;;4992813;28;20054;-62
2021/12/03 00:31:38;;;;;;;4.82;2.28;;;20.20;50.60;;;;;;4994915;28;20116;-62
2021/12/03 00:34:03;;;;;;;4.78;2.58;;;20.20;50.70;;;;;;4994271;28;20105;-62
2021/12/03 00:36:29;;;;;;;5.57;2.40;;;20.20;50.60;;;;;;4992939;28;20057;-62
2021/12/03 00:38:58;;;;;;;3.88;2.03;;;20.20;50.60;;;;;;4994124;28;20043;-61
2021/12/03 00:41:24;;;;;;;3.92;2.30;;;20.20;50.60;;;;;;4993327;28;20108;-62
2021/12/03 00:43:52;;;;;;;4.07;2.13;;;20.20;50.60;;;;;;4993357;28;20042;-62
2021/12/03 00:46:18;;;;;;;4.10;2.00;;;20.10;50.50;;;;;;4993269;28;20092;-62
2021/12/03 00:48:45;;;;;;;4.82;2.03;;;20.10;51.20;;;;;;4992884;28;20042;-62
2021/12/03 00:51:12;;;;;;;4.93;2.15;;;20.10;50.50;;;;;;4992457;28;20042;-62
2021/12/03 00:53:38;;;;;;;4.38;2.10;;;20.10;50.40;;;;;;4994069;28;20486;-62
2021/12/03 00:56:04;;;;;;;4.95;2.47;;;20.10;50.50;;;;;;4994042;28;20044;-62
2021/12/03 00:58:30;;;;;;;3.88;1.83;;;20.10;50.40;;;;;;4993084;28;20054;-62
2021/12/03 01:00:55;;;;;;;4.90;2.40;;;20.10;50.40;;;;;;4992325;28;20050;-62
2021/12/03 01:03:21;;;;;;;4.53;2.05;;;20.10;50.40;;;;;;4994028;28;20082;-62
2021/12/03 01:05:46;;;;;;;4.05;2.28;;;20.00;50.30;;;;;;4991685;28;20034;-62
2021/12/03 01:08:12;;;;;;;4.05;2.13;;;20.00;50.40;;;;;;4993203;28;20050;-62
2021/12/03 01:10:37;;;;;;;4.82;2.03;;;20.00;50.30;;;;;;4992156;28;20454;-62
2021/12/03 01:13:03;;;;;;;4.30;2.25;;;20.00;50.40;;;;;;4991629;28;20044;-62
2021/12/03 01:15:31;;;;;;;6.30;2.40;;;20.00;50.30;;;;;;4993775;28;20073;-62
2021/12/03 01:17:56;;;;;;;4.50;1.80;;;20.00;50.40;;;;;;4991344;28;20042;-61
2021/12/03 01:20:22;;;;;;;3.33;1.88;;;20.00;50.40;;;;;;4993919;28;20049;-62
2021/12/03 01:22:48;;;;;;;3.22;1.88;;;19.90;50.30;;;;;;4993430;28;20038;-62
2021/12/03 01:25:14;;;;;;;3.65;1.90;;;19.90;50.30;;;;;;4993067;28;20038;-62
2021/12/03 01:27:40;;;;;;;3.97;1.77;;;19.90;50.30;;;;;;4993999;28;20497;-62
2021/12/03 01:30:07;;;;;;;4.22;1.83;;;19.90;50.30;;;;;;4993354;28;20046;-62
2021/12/03 01:32:33;;;;;;;3.70;2.05;;;19.90;50.40;;;;;;4992366;28;20058;-62
2021/12/03 01:34:58;;;;;;;4.60;1.95;;;19.90;51.00;;;;;;4992863;28;20398;-62
2021/12/03 01:37:24;;;;;;;4.35;1.83;;;19.90;50.30;;;;;;4993563;28;20512;-62
2021/12/03 01:39:49;;;;;;;3.17;1.63;;;19.90;50.30;;;;;;4992331;28;20042;-62
2021/12/03 01:42:15;;;;;;;3.75;1.80;;;19.90;50.30;;;;;;4993584;28;20037;-61
2021/12/03 01:44:40;;;;;;;3.55;1.80;;;19.90;50.30;;;;;;4993581;28;20125;-62
2021/12/03 01:47:06;;;;;;;3.92;1.38;;;19.80;50.20;;;;;;4992755;28;20070;-62
2021/12/03 01:49:31;;;;;;;2.97;1.80;;;19.80;50.20;;;;;;4992165;28;20483;-62
2021/12/03 01:51:57;;;;;;;2.95;1.70;;;19.80;50.90;;;;;;4992036;28;20053;-62
2021/12/03 01:54:22;;;;;;;3.33;1.80;;;19.80;50.30;;;;;;4992744;28;20050;-61
2021/12/03 01:56:48;;;;;;;3.53;1.58;;;19.80;50.20;;;;;;4993262;28;20043;-62
2021/12/03 01:59:13;;;;;;;3.72;1.60;;;19.80;50.20;;;;;;4993121;28;20050;-62
2021/12/03 02:01:39;;;;;;;3.85;1.85;;;19.80;50.10;;;;;;4992751;28;20403;-62
2021/12/03 02:04:05;;;;;;;3.58;1.25;;;19.80;50.10;;;;;;4993135;28;20038;-62
2021/12/03 02:06:30;;;;;;;3.90;1.65;;;19.70;50.00;;;;;;4992050;28;20042;-62
2021/12/03 02:08:56;;;;;;;2.58;1.30;;;19.70;50.10;;;;;;4992372;28;20074;-61
2021/12/03 02:11:22;;;;;;;2.55;1.35;;;19.70;50.10;;;;;;4993411;28;20585;-62
2021/12/03 02:13:48;;;;;;;3.35;1.50;;;19.70;50.00;;;;;;4992532;28;20046;-62
2021/12/03 02:16:15;;;;;;;3.58;1.58;;;19.70;50.00;;;;;;4992388;28;20074;-61
2021/12/03 02:18:40;;;;;;;3.10;1.40;;;19.70;50.00;;;;;;4991739;28;20057;-62
2021/12/03 02:21:07;;;;;;;2.80;1.55;;;19.70;50.00;;;;;;4992247;28;20046;-62
2021/12/03 02:23:33;;;;;;;2.83;1.27;;;19.70;50.00;;;;;;4993383;28;20097;-62
2021/12/03 02:25:59;;;;;;;2.70;1.30;;;19.60;50.00;;;;;;4991387;28;20046;-62
2021/12/03 02:28:26;;;;;;;3.63;1.40;;;19.60;50.00;;;;;;4992426;28;20042;-62
2021/12/03 02:30:52;;;;;;;2.97;1.27;;;19.60;50.00;;;;;;4992978;28;20093;-62
2021/12/03 02:33:17;;;;;;;3.05;1.45;;;19.60;50.00;;;;;;4992728;28;20054;-62
2021/12/03 02:35:44;;;;;;;2.50;1.13;;;19.60;49.90;;;;;;4992005;28;20574;-62
2021/12/03 02:38:11;;;;;;;2.95;1.20;;;19.60;49.90;;;;;;4992951;28;20084;-62
2021/12/03 02:40:36;;;;;;;3.20;1.30;;;19.60;50.00;;;;;;4992864;28;20056;-62
2021/12/03 02:43:02;;;;;;;2.85;1.35;;;19.60;50.00;;;;;;4991922;28;20046;-62
2021/12/03 02:45:27;;;;;;;2.38;1.30;;;19.60;50.00;;;;;;4993277;28;20043;-62
2021/12/03 02:47:53;;;;;;;3.17;1.40;;;19.60;50.00;;;;;;4995000;28;20050;-62
2021/12/03 02:50:19;;;;;;;3.95;1.48;;;19.60;50.10;;;;;;5012074;28;20100;-62
2021/12/03 02:52:46;;;;;;;3.97;1.10;;;19.60;50.10;;;;;;5015949;28;20042;-62
2021/12/03 02:55:12;;;;;;;2.63;1.15;;;19.60;50.10;;;;;;5015161;28;20053;-62
2021/12/03 02:57:37;;;;;;;2.15;0.95;;;19.60;50.00;;;;;;5014143;28;20046;-62
2021/12/03 03:00:05;;;;;;;3.05;1.30;;;19.60;50.10;;;;;;5014434;28;20072;-62
2021/12/03 03:02:31;;;;;;;2.97;1.45;;;19.60;50.10;;;;;;4994568;28;20046;-62
2021/12/03 03:04:56;;;;;;;3.15;1.20;;;19.60;50.00;;;;;;4994164;28;20046;-62
2021/12/03 03:07:22;;;;;;;4.03;1.25;;;19.60;50.00;;;;;;4993479;28;20113;-62
2021/12/03 03:09:47;;;;;;;2.65;1.10;;;19.70;50.00;;;;;;4995304;28;20133;-62
2021/12/03 03:12:13;;;;;;;4.43;1.27;;;19.70;50.00;;;;;;4995762;28;20048;-62
2021/12/03 03:14:46;;;;;;;2.60;1.20;;;19.70;50.70;;;;;;4994983;28;20046;-62
2021/12/03 03:17:12;;;;;;;2.30;1.15;;;19.70;50.30;;;;;;4994616;28;20050;-62
2021/12/03 03:19:38;;;;;;;2.15;1.13;;;19.70;50.00;;;;;;4979780;28;20054;-62
2021/12/03 03:22:03;;;;;;;3.78;1.10;;;19.70;50.00;;;;;;5015593;28;20064;-62
2021/12/03 03:24:29;;;;;;;2.85;1.42;;;19.70;50.00;;;;;;5013717;28;20088;-62
2021/12/03 03:26:54;;;;;;;4.35;1.50;;;19.70;50.00;;;;;;5030798;28;20449;-62
2021/12/03 03:29:20;;;;;;;3.15;1.02;;;19.70;50.00;;;;;;5014496;28;20482;-62
2021/12/03 03:31:46;;;;;;;2.97;1.00;;;19.70;50.00;;;;;;5013296;28;20297;-62
2021/12/03 03:34:11;;;;;;;2.08;0.95;;;19.70;50.00;;;;;;5030471;28;20138;-62
2021/12/03 03:36:39;;;;;;;3.00;1.20;;;19.70;50.00;;;;;;5015648;28;20042;-61
2021/12/03 03:39:05;;;;;;;3.63;1.30;;;19.70;50.00;;;;;;5014408;28;20202;-62
2021/12/03 03:41:31;;;;;;;4.57;1.63;;;19.70;50.00;;;;;;5015370;28;20034;-62
2021/12/03 03:43:57;;;;;;;2.47;1.00;;;19.70;50.10;;;;;;5015214;28;20504;-62
2021/12/03 03:46:22;;;;;;;1.92;1.02;;;19.70;50.00;;;;;;5014715;28;20033;-62
2021/12/03 03:48:48;;;;;;;4.82;1.13;;;19.80;50.10;;;;;;5014781;28;20083;-62
2021/12/03 03:51:13;;;;;;;1.73;0.90;;;19.80;50.10;;;;;;5015234;28;20074;-63
2021/12/03 03:53:40;;;;;;;2.47;1.20;;;19.80;50.20;;;;;;5014539;28;20398;-62
2021/12/03 03:56:09;;;;;;;2.88;1.00;;;19.80;50.10;;;;;;5014951;28;20457;-63
2021/12/03 03:58:37;;;;;;;3.08;1.02;;;19.80;50.20;;;;;;5014091;28;20064;-63
2021/12/03 04:01:03;;;;;;;2.35;0.80;;;19.80;50.10;;;;;;5013775;28;20050;-63
2021/12/03 04:03:30;;;;;;;2.83;1.10;;;19.80;50.10;;;;;;5030360;28;20037;-63
2021/12/03 04:05:56;;;;;;;3.70;0.90;;;19.80;50.10;;;;;;5013053;28;20045;-63
2021/12/03 04:08:21;;;;;;;2.80;1.02;;;19.80;50.10;;;;;;5014212;28;20045;-62
2021/12/03 04:10:47;;;;;;;2.67;0.93;;;19.80;50.00;;;;;;5013080;28;20509;-62
2021/12/03 04:13:12;;;;;;;2.75;0.95;;;19.80;50.00;;;;;;5013099;28;20046;-63
2021/12/03 04:15:38;;;;;;;2.13;0.95;;;19.80;50.00;;;;;;5012741;28;20042;-63
2021/12/03 04:18:04;;;;;;;2.80;1.00;;;19.80;50.10;;;;;;5014224;28;20044;-62
2021/12/03 04:20:29;;;;;;;3.35;1.10;;;19.80;50.00;;;;;;5013716;28;20046;-62
2021/12/03 04:22:55;;;;;;;2.20;1.00;;;19.90;50.10;;;;;;5013682;28;20138;-62
2021/12/03 04:25:21;;;;;;;3.15;1.08;;;19.80;50.00;;;;;;5014622;28;20063;-62
2021/12/03 04:27:47;;;;;;;3.50;1.00;;;19.90;50.10;;;;;;5013484;28;20050;-63
2021/12/03 04:30:17;;;;;;;2.67;1.00;;;19.90;50.00;;;;;;5014269;28;20057;-62
2021/12/03 04:32:42;;;;;;;3.10;1.10;;;19.90;50.00;;;;;;5014039;28;20049;-62
2021/12/03 04:35:08;;;;;;;1.65;0.77;;;19.90;50.10;;;;;;5012343;28;20026;-62
2021/12/03 04:37:34;;;;;;;3.03;1.25;;;19.90;50.10;;;;;;5014466;28;20050;-62
2021/12/03 04:39:59;;;;;;;2.60;1.08;;;19.90;50.00;;;;;;5013829;28;20056;-62
2021/12/03 04:42:25;;;;;;;2.13;1.13;;;19.90;50.00;;;;;;5012106;28;20568;-62
2021/12/03 04:44:50;;;;;;;2.13;0.77;;;19.90;50.00;;;;;;5012808;28;20100;-62
2021/12/03 04:47:16;;;;;;;1.42;0.70;;;19.90;50.00;;;;;;5013992;28;20149;-62
2021/12/03 04:49:41;;;;;;;1.85;0.80;;;19.90;50.00;;;;;;5012970;28;20402;-63
2021/12/03 04:52:07;;;;;;;1.65;0.90;;;19.90;50.00;;;;;;5012839;28;20108;-62
2021/12/03 04:54:33;;;;;;;1.90;0.80;;;20.00;50.00;;;;;;5012832;28;20495;-62
2021/12/03 04:56:58;;;;;;;1.98;0.70;;;20.00;50.10;;;;;;5012808;28;20493;-62
2021/12/03 04:59:24;;;;;;;2.30;0.75;;;20.00;50.00;;;;;;4998397;28;20060;-62
2021/12/03 05:01:53;;;;;;;1.55;0.68;;;20.00;50.00;;;;;;4999668;28;20092;-62
2021/12/03 05:04:19;;;;;;;1.90;0.98;;;20.00;50.00;;;;;;4996397;28;20043;-62
2021/12/03 05:07:06;;;;;;;2.17;0.85;;;20.00;50.00;;;;;;4991592;28;20057;-63
2021/12/03 05:09:31;;;;;;;1.67;0.80;;;20.00;50.00;;;;;;4990959;28;20129;-62
2021/12/03 05:11:57;;;;;;;2.28;0.77;;;20.00;49.90;;;;;;4991972;28;20168;-62
2021/12/03 05:14:23;;;;;;;3.30;0.80;;;20.00;49.90;;;;;;4994303;28;20053;-62
2021/12/03 05:16:48;;;;;;;1.63;0.70;;;20.00;50.00;;;;;;4991715;28;20046;-60
2021/12/03 05:19:15;;;;;;;2.40;0.82;;;20.00;50.00;;;;;;4993692;28;20042;-61
2021/12/03 05:21:41;;;;;;;1.60;0.73;;;20.00;49.90;;;;;;4992373;28;20038;-60
2021/12/03 05:24:07;;;;;;;2.13;0.80;;;20.00;49.90;;;;;;4993174;28;20056;-60
2021/12/03 05:26:32;;;;;;;2.47;0.93;;;20.00;49.80;;;;;;4993809;28;20505;-60
2021/12/03 05:28:58;;;;;;;1.73;0.85;;;20.10;49.90;;;;;;4993414;28;20042;-60
2021/12/03 05:31:23;;;;;;;1.63;0.70;;;20.00;49.70;;;;;;4993231;28;20546;-60
2021/12/03 05:33:49;;;;;;;2.10;0.80;;;20.10;49.80;;;;;;4992355;28;20042;-60
2021/12/03 05:36:15;;;;;;;1.70;0.60;;;20.00;49.70;;;;;;4992448;28;20057;-60
2021/12/03 05:38:40;;;;;;;2.30;0.90;;;20.10;49.80;;;;;;4992548;28;20126;-60
2021/12/03 05:41:06;;;;;;;1.77;0.80;;;20.00;49.70;;;;;;4993725;28;20050;-60
2021/12/03 05:43:31;;;;;;;2.30;0.82;;;20.10;49.70;;;;;;4992262;28;20042;-59
2021/12/03 05:45:57;;;;;;;2.75;0.80;;;20.10;49.70;;;;;;4992435;28;20050;-60
2021/12/03 05:48:22;;;;;;;1.85;0.80;;;20.10;49.70;;;;;;4993624;28;20077;-60
2021/12/03 05:50:48;;;;;;;1.30;0.77;;;20.10;49.60;;;;;;4991794;28;20054;-61
2021/12/03 05:53:14;;;;;;;1.70;0.60;;;20.10;49.70;;;;;;4991013;28;20046;-60
2021/12/03 05:55:39;;;;;;;4.38;1.10;;;20.10;49.70;;;;;;4993512;28;20049;-60
2021/12/03 05:58:05;;;;;;;2.78;0.80;;;20.10;49.60;;;;;;4992958;28;20046;-60
2021/12/03 06:00:33;;;;;;;1.60;0.70;;;20.10;49.60;;;;;;4991169;28;20133;-60
2021/12/03 06:02:59;;;;;;;2.70;0.60;;;20.10;49.60;;;;;;4992970;28;20126;-60
2021/12/03 06:05:25;;;;;;;2.30;0.82;;;20.10;49.60;;;;;;4993496;28;20046;-60
2021/12/03 06:07:51;;;;;;;1.67;0.65;;;20.10;50.40;;;;;;4992245;28;20051;-60
2021/12/03 06:10:17;;;;;;;2.05;0.90;;;20.10;49.60;;;;;;4993195;28;20054;-60
2021/12/03 06:12:43;;;;;;;2.15;0.77;;;20.00;49.50;;;;;;4997272;28;20049;-60
2021/12/03 06:15:08;;;;;;;1.55;0.60;;;20.10;49.60;;;;;;5012163;28;20042;-60
2021/12/03 06:17:34;;;;;;;3.00;0.85;;;20.10;49.60;;;;;;5011444;28;20049;-60
2021/12/03 06:19:59;;;;;;;1.85;0.70;;;20.00;49.50;;;;;;5013327;28;20046;-60
2021/12/03 06:22:25;;;;;;;3.13;0.70;;;20.10;50.20;;;;;;5014697;28;20042;-60
2021/12/03 06:24:50;;;;;;;1.73;0.80;;;20.00;49.40;;;;;;5016271;28;20049;-60
2021/12/03 06:27:16;;;;;;;2.60;0.60;;;20.00;49.50;;;;;;5016111;28;20046;-60
2021/12/03 06:29:41;;;;;;;2.10;0.82;;;20.10;49.60;;;;;;5015107;28;20037;-60
2021/12/03 06:32:09;;;;;;;2.05;0.77;;;20.00;49.50;;;;;;5016845;28;20421;-60
2021/12/03 06:34:36;;;;;;;2.23;0.97;;;20.10;49.50;;;;;;5015803;28;20049;-60
2021/12/03 06:37:01;;;;;;;2.38;0.70;;;20.10;50.20;;;;;;5016114;28;20501;-60
2021/12/03 06:39:27;;;;;;;1.77;0.65;;;20.10;49.50;;;;;;5016656;28;20041;-60
2021/12/03 06:41:52;;;;;;;2.63;0.80;;;20.10;50.20;;;;;;5015371;28;20046;-60
2021/12/03 06:44:18;;;;;;;1.42;0.73;;;20.10;49.40;;;;;;5015423;28;20078;-60
2021/12/03 06:46:44;;;;;;;3.75;0.60;;;20.10;49.50;;;;;;5016098;28;20112;-60
2021/12/03 06:49:09;;;;;;;1.52;0.57;;;20.10;49.50;;;;;;5015338;28;20573;-60
2021/12/03 06:51:41;;;;;;;1.15;0.68;;;20.10;49.40;;;;;;5016411;28;20474;-60
2021/12/03 06:54:08;;;;;;;2.60;0.80;;;20.10;49.40;;;;;;5015346;28;20046;-60
2021/12/03 06:56:51;;;;;;;1.93;0.70;;;20.10;49.40;;;;;;5015522;28;20046;-60
2021/12/03 06:59:17;;;;;;;1.80;0.70;;;20.10;49.40;;;;;;5014799;28;20512;-60
2021/12/03 07:01:43;;;;;;;1.55;0.70;;;20.10;49.30;;;;;;5015510;28;20056;-60
2021/12/03 07:04:09;;;;;;;2.05;0.77;;;20.10;49.30;;;;;;5015366;28;20129;-60
2021/12/03 07:06:34;;;;;;;1.92;0.80;;;20.10;49.30;;;;;;5014806;28;20046;-62
2021/12/03 07:09:00;;;;;;;1.30;0.60;;;20.10;49.30;;;;;;5015868;28;20054;-61
2021/12/03 07:11:25;;;;;;;2.22;0.90;;;20.10;49.30;;;;;;5015298;28;20049;-62
2021/12/03 07:13:51;;;;;;;1.15;0.70;;;20.10;49.20;;;;;;5015645;28;20057;-62
2021/12/03 07:16:17;;;;;;;2.42;0.77;;;20.10;49.20;;;;;;5014590;28;20125;-62
2021/12/03 07:18:45;;;;;;;2.22;0.70;;;20.10;49.20;;;;;;5013672;28;20100;-62
2021/12/03 07:21:11;;;;;;;1.38;0.68;;;20.10;49.20;;;;;;5016128;28;20128;-62
2021/12/03 07:23:36;;;;;;;1.98;0.93;;;20.10;49.10;;;;;;5013711;28;20129;-63
2021/12/03 07:26:02;;;;;;;1.50;0.70;;;20.10;49.10;;;;;;5014100;28;20056;-61
2021/12/03 07:28:31;;;;;;;4.15;1.00;;;20.10;49.10;;;;;;5014111;28;20038;-61
2021/12/03 07:30:57;;;;;;;2.10;0.82;;;20.10;49.10;;;;;;5013248;28;20050;-61
2021/12/03 07:33:22;;;;;;;3.38;0.77;;;20.10;49.10;;;;;;5014393;28;20559;-61
2021/12/03 07:35:48;;;;;;;2.58;0.80;;;20.10;49.10;;;;;;5014055;28;20046;-61
2021/12/03 07:38:15;;;;;;;2.33;0.93;;;20.10;49.10;;;;;;5014830;28;20041;-61
2021/12/03 07:40:42;;;;;;;2.72;0.80;;;20.10;49.10;;;;;;5013839;28;20053;-61
2021/12/03 07:43:08;;;;;;;3.88;0.95;;;20.10;49.10;;;;;;5014224;28;20537;-61
2021/12/03 07:45:33;;;;;;;3.45;0.77;;;20.10;49.20;;;;;;5014716;28;20517;-61
2021/12/03 07:47:59;;;;;;;2.45;0.80;;;20.10;49.30;;;;;;5013782;28;20108;-61
2021/12/03 07:50:24;;;;;;;10.02;0.90;;;20.10;49.40;;;;;;5014998;28;20107;-61
2021/12/03 07:52:50;;;;;;;3.80;1.00;;;20.10;49.40;;;;;;5006216;28;20042;-61
2021/12/03 07:55:15;;;;;;;2.90;1.25;;;20.10;49.60;;;;;;5005183;28;20101;-61
2021/12/03 07:57:41;;;;;;;4.18;0.90;;;20.10;49.80;;;;;;5008946;28;20041;-61
2021/12/03 08:00:07;;;;;;;2.78;0.90;;;20.10;49.90;;;;;;5012494;28;20141;-61
2021/12/03 08:02:33;;;;;;;3.63;0.82;;;20.20;50.10;;;;;;5014751;28;20401;-61
2021/12/03 08:04:58;;;;;;;5.22;0.80;;;20.20;50.40;;;;;;5014758;28;20124;-61
2021/12/03 08:07:24;;;;;;;6.78;1.35;;;20.20;50.50;;;;;;5014133;28;20042;-61
2021/12/03 08:09:50;;;;;;;2.55;0.98;;;20.20;50.60;;;;;;5014449;28;20050;-62
2021/12/03 08:12:15;;;;;;;2.38;0.73;;;20.20;50.70;;;;;;5013768;28;20046;-62
2021/12/03 08:14:41;;;;;;;2.28;0.80;;;20.20;50.80;;;;;;5013791;28;20437;-61
2021/12/03 08:17:07;;;;;;;4.07;1.02;;;20.20;50.90;;;;;;5014495;28;20124;-61
2021/12/03 08:19:33;;;;;;;4.30;0.98;;;20.20;51.00;;;;;;5014512;28;20129;-61
2021/12/03 08:21:59;;;;;;;4.13;0.90;;;20.20;51.00;;;;;;5013376;28;20049;-61
2021/12/03 08:24:24;;;;;;;2.08;0.80;;;20.30;51.10;;;;;;5014437;28;20065;-61
2021/12/03 08:26:49;;;;;;;4.35;0.80;;;20.30;51.10;;;;;;5012867;28;20474;-61
2021/12/03 08:29:15;;;;;;;2.53;0.80;;;20.20;51.10;;;;;;5014126;28;20506;-61
2021/12/03 08:31:40;;;;;;;2.75;1.00;;;20.30;51.20;;;;;;5013732;28;20045;-62
2021/12/03 08:34:06;;;;;;;4.47;0.93;;;20.30;51.10;;;;;;5013671;28;20104;-63
2021/12/03 08:36:32;;;;;;;4.75;1.30;;;20.20;51.00;;;;;;5012998;28;20042;-61
2021/12/03 08:38:57;;;;;;;2.88;0.98;;;20.30;51.10;;;;;;5014070;28;20179;-62
2021/12/03 08:41:23;;;;;;;5.95;1.05;;;20.30;51.20;;;;;;5013373;28;20045;-60
2021/12/03 08:43:49;;;;;;;3.70;1.10;;;20.30;51.20;;;;;;5013686;28;20049;-61
2021/12/03 08:46:23;;;;;;;6.88;1.92;;;20.30;51.10;;;;;;5012659;28;20108;-62
2021/12/03 08:48:49;;;;;;;4.13;1.10;;;20.30;51.10;;;;;;5012760;28;20042;-60
2021/12/03 08:51:27;;;;;;;5.75;1.20;;;20.30;51.10;;;;;;5012544;28;20053;-61
2021/12/03 08:56:36;;;;;;;3.45;1.20;;;20.30;51.30;;;;;;5013070;28;20481;-61
2021/12/03 08:59:04;;;;;;;3.47;1.20;;;20.30;51.30;;;;;;5013560;28;20058;-60
2021/12/03 09:01:29;;;;;;;3.97;1.30;;;20.30;51.30;;;;;;5012581;28;20060;-61
2021/12/03 09:03:55;;;;;;;2.50;1.10;;;20.40;51.40;;;;;;5011650;28;20041;-61
2021/12/03 09:06:20;;;;;;;4.20;1.30;;;20.30;51.40;;;;;;5014059;28;20050;-61
2021/12/03 09:08:46;;;;;;;3.95;1.42;;;20.30;51.40;;;;;;5012126;28;20042;-61
2021/12/03 09:11:11;;;;;;;4.85;1.73;;;20.40;51.50;;;;;;5011433;28;20050;-61
2021/12/03 09:13:39;;;;;;;4.63;1.70;;;20.40;51.50;;;;;;5012313;28;20046;-61
2021/12/03 09:16:08;;;;;;;4.50;1.50;;;20.40;51.60;;;;;;5011617;28;20120;-60
2021/12/03 09:18:37;;;;;;;5.10;1.92;;;20.40;51.60;;;;;;5012406;28;20056;-61
2021/12/03 09:21:23;;;;;;;5.85;1.95;;;20.40;51.60;;;;;;5028568;28;20145;-61
2021/12/03 09:26:22;;;;;;;3.75;1.75;;;20.40;51.60;;;;;;5013564;28;20481;-61
2021/12/03 09:28:50;;;;;;;3.93;2.00;;;20.40;51.60;;;;;;5012985;28;20085;-61
2021/12/03 09:31:17;;;;;;;4.55;1.90;;;20.40;51.60;;;;;;5012455;28;20445;-61
2021/12/03 09:33:46;;;;;;;5.68;2.33;;;20.40;51.50;;;;;;5012853;28;20117;-60
2021/12/03 09:36:11;;;;;;;4.10;2.42;;;20.40;51.50;;;;;;5013117;28;20050;-61
2021/12/03 09:38:37;;;;;;;5.32;2.53;;;20.40;51.50;;;;;;5011431;28;20075;-61
2021/12/03 09:41:15;;;;;;;4.35;2.10;;;20.40;51.60;;;;;;5013062;28;20130;-60
2021/12/03 09:43:42;;;;;;;;;;;20.40;51.70;;;;;;5013149;28;20045;-60
2021/12/03 09:46:15;;;;;;;5.50;2.72;;;20.40;51.60;;;;;;5012406;28;20292;-61
2021/12/03 09:48:58;;;;;;;6.35;2.53;;;20.40;51.60;;;;;;5012760;28;20060;-60
2021/12/03 09:51:25;;;;;;;8.00;2.38;;;20.40;51.70;;;;;;5012404;28;20101;-60
2021/12/03 09:56:19;;;;;;;7.15;2.80;;;20.40;51.70;;;;;;5012553;28;20096;-61
2021/12/03 09:59:26;;;;;;;5.93;2.92;;;20.50;51.70;;;;;;5010661;28;20065;-60
2021/12/03 10:04:23;;;;;;;7.78;3.28;;;20.40;51.50;;;;;;5012875;28;20597;-61
2021/12/03 10:10:20;;;;;;;7.97;3.28;;;20.40;51.50;;;;;;5012742;28;20046;-60
2021/12/03 10:26:25;;;;;;;6.20;3.13;;;20.50;51.50;;;;;;5003911;28;20043;-61
2021/12/03 10:41:58;;;;;;;6.60;3.10;;;20.50;51.10;;;;;;4992077;28;20458;-61
2021/12/03 10:47:08;;;;;;;8.68;3.60;;;20.50;51.00;;;;;;4991654;28;20054;-61
2021/12/03 10:49:53;;;;;;;6.55;3.33;;;20.50;51.30;;;;;;4992283;28;20049;-61
2021/12/03 10:52:36;;;;;;;7.68;3.15;;;20.50;51.50;;;;;;5010072;28;20038;-61
2021/12/03 10:58:24;;;;;;;8.00;3.50;;;20.60;51.90;;;;;;5001226;28;20050;-61
2021/12/03 11:01:19;;;;;;;5.88;2.97;;;20.50;51.80;;;;;;5001390;28;20466;-62
2021/12/03 11:04:27;;;;;;;8.27;2.92;;;20.60;51.90;;;;;;5000767;28;20050;-62
2021/12/03 11:25:43;;;;;;;7.95;2.97;;;20.60;51.70;;;;;;5005772;28;20051;-61
2021/12/03 11:31:17;;;;;;;6.78;3.08;;;20.60;51.60;;;;;;5012497;28;20042;-61
2021/12/03 11:34:10;;;;;;;5.63;2.90;;;20.60;51.50;;;;;;5017800;28;20042;-61
2021/12/03 11:39:16;;;;;;;8.57;3.00;;;20.50;51.30;;;;;;5029266;28;20064;-61
2021/12/03 11:45:45;;;;;;;7.65;2.72;;;20.50;50.70;;;;;;5012854;28;20046;-61
2021/12/03 11:51:48;;;;;;;7.47;3.08;;;20.50;50.40;;;;;;5013455;28;20046;-61
2021/12/03 11:55:04;;;;;;;6.88;2.65;;;20.50;50.30;;;;;;5013543;28;20081;-61
2021/12/03 12:03:05;;;;;;;7.78;2.90;;;20.50;50.20;;;;;;5012271;28;20108;-60
2021/12/03 12:11:30;;;;;;;6.68;2.88;;;20.50;50.20;;;;;;5003769;28;20055;-61
2021/12/03 12:23:07;;;;;;;8.35;2.95;;;20.50;50.30;;;;;;4999714;28;20050;-60
2021/12/03 12:24:57;;;;;;;8.45;2.78;;;20.50;50.20;;;;;;4997835;28;20050;-60
2021/12/03 12:36:32;;;;;;;6.68;2.75;;;20.50;49.90;;;;;;5002206;28;20046;-59
2021/12/03 12:42:12;;;;;;;10.80;2.80;;;20.50;50.20;;;;;;5004861;28;20043;-60
2021/12/03 13:18:36;;;;;;;6.90;2.08;;;20.60;50.60;;;;;;4993683;28;20125;-59
2021/12/03 13:24:21;;;;;;;7.00;1.75;;;20.50;50.50;;;;;;4992691;28;20055;-60
2021/12/03 13:30:32;;;;;;;6.30;1.77;;;20.60;50.50;;;;;;4992792;28;20130;-61
2021/12/03 14:10:24;;;;;;;5.32;1.58;;;20.60;50.50;;;;;;4992117;28;20062;-60
2021/12/03 14:46:02;;;;;;;4.97;1.48;;;20.60;50.40;;;;;;5035985;28;20078;-60
2021/12/03 14:48:37;;;;;;;5.88;1.40;;;20.60;50.40;;;;;;5034675;28;20051;-60
2021/12/03 14:51:15;;;;;;;4.38;1.50;;;20.60;50.20;;;;;;5035635;28;20041;-61
2021/12/03 14:56:20;;;;;;;5.82;1.33;;;20.60;49.90;;;;;;5036127;28;20073;-60
2021/12/03 14:58:50;;;;;;;2.85;1.40;;;20.60;49.80;;;;;;5035698;28;20096;-61
2021/12/03 15:01:35;;;;;;;5.03;1.80;;;20.60;50.50;;;;;;5018240;28;20060;-60
2021/12/03 15:07:12;;;;;;;5.82;1.85;;;20.60;49.50;;;;;;5017770;28;20049;-61
2021/12/03 15:09:43;;;;;;;6.35;1.63;;;20.60;49.60;;;;;;4997302;28;20398;-61
2021/12/03 15:12:47;;;;;;;5.72;1.20;;;20.60;49.50;;;;;;5016086;28;20081;-60
2021/12/03 15:20:58;;;;;;;7.20;1.50;;;20.60;49.40;;;;;;5010255;28;20049;-61
2021/12/03 15:23:34;;;;;;;4.45;1.38;;;20.60;49.50;;;;;;5006631;28;20486;-60
2021/12/03 15:26:35;;;;;;;3.90;1.10;;;20.60;49.50;;;;;;5023142;28;20584;-61
2021/12/03 15:31:45;;;;;;;5.88;1.40;;;20.60;49.60;;;;;;5020387;28;20053;-61
2021/12/03 16:03:32;;;;;;;6.72;1.55;;;20.60;48.90;;;;;;5002234;28;20058;-60
2021/12/03 16:06:00;;;;;;;5.18;1.50;;;20.60;48.70;;;;;;5001635;28;20035;-59
2021/12/03 16:08:27;;;;;;;7.15;1.60;;;20.60;48.60;;;;;;5001551;28;20522;-59
2021/12/03 16:26:35;;;;;;;5.63;1.42;;;20.50;48.00;;;;;;4993086;28;20130;-60
2021/12/03 16:53:37;;;;;;;4.68;1.38;;;20.60;49.00;;;;;;4993501;28;20430;-60
2021/12/03 16:56:08;;;;;;;7.80;1.65;;;20.60;49.10;;;;;;4994119;28;20050;-60
2021/12/03 16:58:35;;;;;;;7.47;1.40;;;20.60;49.10;;;;;;4978362;28;20061;-60
2021/12/03 17:01:08;;;;;;;3.55;1.25;;;20.60;49.20;;;;;;5014901;28;20053;-60
2021/12/03 17:03:43;;;;;;;6.93;1.23;;;20.60;49.30;;;;;;5009811;28;20184;-60
2021/12/03 17:09:18;;;;;;;5.40;1.40;;;20.70;49.50;;;;;;4947763;29;20161;-59
2021/12/03 17:17:53;;;;;;;4.45;1.20;;;20.70;49.60;;;;;;5021141;28;20052;-60
2021/12/03 17:49:44;;;;;;;4.20;0.98;;;20.80;49.80;;;;;;5016783;28;20049;-61
2021/12/03 17:52:31;;;;;;;5.88;0.88;;;20.80;49.90;;;;;;5023406;28;20057;-61
2021/12/03 17:57:49;;;;;;;2.67;0.73;;;20.80;50.00;;;;;;5017144;28;20050;-61
2021/12/03 18:00:25;;;;;;;3.25;1.00;;;20.80;50.10;;;;;;5005776;28;20069;-60
2021/12/03 18:02:53;;;;;;;2.95;0.77;;;20.80;50.10;;;;;;4993187;28;20049;-60
2021/12/03 18:05:29;;;;;;;2.72;0.73;;;20.80;50.10;;;;;;4997455;28;20042;-59
2021/12/03 18:08:06;;;;;;;3.90;0.90;;;20.80;49.90;;;;;;4998938;28;20062;-61
2021/12/03 18:10:49;;;;;;;4.32;1.20;;;20.80;49.80;;;;;;4995655;28;20133;-60
2021/12/03 18:16:15;;;;;;;3.80;0.98;;;20.80;50.10;;;;;;4999705;28;20053;-59
2021/12/03 18:46:22;;;;;;;3.63;1.30;;;20.90;50.50;;;;;;4998639;28;20042;-63
2021/12/03 18:49:10;;;;;;;4.28;1.00;;;20.90;50.50;;;;;;4999297;28;20487;-63
2021/12/03 18:51:49;;;;;;;4.95;1.15;;;21.00;50.50;;;;;;4999484;28;20077;-63
2021/12/03 18:54:30;;;;;;;5.03;1.30;;;21.00;50.50;;;;;;4997770;28;20057;-63
2021/12/03 18:56:57;;;;;;;7.57;1.58;;;20.90;50.50;;;;;;4998957;28;20074;-60
2021/12/03 18:59:26;;;;;;;3.30;1.10;;;21.00;51.40;;;;;;4998159;28;20085;-60
2021/12/03 19:01:52;;;;;;;3.00;1.35;;;21.00;50.80;;;;;;4998570;28;20514;-60
2021/12/03 19:04:37;;;;;;;4.10;1.20;;;21.00;50.90;;;;;;4999281;28;20042;-60
2021/12/03 19:07:19;;;;;;;4.45;1.30;;;21.00;51.00;;;;;;4997315;28;20042;-61
2021/12/03 19:09:48;;;;;;;4.53;1.20;;;21.00;51.20;;;;;;4997388;28;20050;-60